• Join FlightAware (Why Join?)
  • Login
  • US Flag 
12:46PM EDT


 

Airport Tracker/Info


-or-


 

Live Flight TrackerFlight Track Log ✈ N121JM ✈ 27-Nov-2013 ✈ KMMU - KPBI

Flight Track Log - Related Links

Times and Time Zones

All times are in EST time to prevent confusion due to time zone crossing. See the N121JM flight status page for this flight to view local times or setup timezone preferences in your user account.

Time Position Orientation Groundspeed Altitude Reporting Facility
EST Latitude Longitude Course Direction KTS MPH feet Rate Location/Type
01:57PM 40.8178 -74.3951 38° Northeast 180 207 1,700  Level FlightAware ADS-B
01:59PM 40.8205 -74.3099 88° East 225 259 5,500 2,640 Climbing FlightAware ADS-B
01:59PM 40.8165 -74.3083 163° South 227 261 5,700 3,000 Climbing FlightAware ADS-B
01:59PM 40.8098 -74.3073 174° South 229 264 6,000 3,000 Climbing FlightAware ADS-B
01:59PM 40.8056 -74.3077 184° South 229 264 6,200 2,640 Climbing FlightAware ADS-B
01:59PM 40.8012 -74.3089 192° South 230 265 6,400 3,300 Climbing FlightAware ADS-B
01:59PM 40.7964 -74.3112 200° South 225 259 6,700 4,200 Climbing FlightAware ADS-B
01:59PM 40.7912 -74.3149 208° Southwest 220 253 7,100 4,200 Climbing FlightAware ADS-B
01:59PM 40.7878 -74.3185 219° Southwest 217 250 7,400 2,760 Climbing FlightAware ADS-B
02:01PM 40.7519 -74.4726 253° West 246 283 13,100 2,460 Climbing FlightAware ADS-B
02:02PM 40.7348 -74.5219 245° Southwest 260 299 14,000 1,440 Climbing FlightAware ADS-B
02:03PM 40.7051 -74.6086 246° West 301 346 15,200 1,920 Climbing FlightAware ADS-B
02:09PM 40.4491 -75.2040 241° Southwest 299 344 27,800 1,920 Climbing FlightAware ADS-B (KWWD)
02:10PM 40.4110 -75.2643 230° Southwest 302 348 28,600 1,080 Climbing FlightAware ADS-B (KWWD)
02:10PM 40.3774 -75.3170 230° Southwest 311 358 29,300 1,080 Climbing FlightAware ADS-B (KWWD)
02:11PM 40.3258 -75.3981 230° Southwest 313 360 30,300 1,140 Climbing FlightAware ADS-B (KWWD)
02:12PM 40.2765 -75.4750 230° Southwest 320 368 31,400 1,200 Climbing FlightAware ADS-B (KWWD)
02:13PM 40.2448 -75.5247 230° Southwest 324 373 32,000 1,140 Climbing FlightAware ADS-B (KWWD)
02:13PM 40.2134 -75.5779 232° Southwest 330 380 32,700 1,200 Climbing FlightAware ADS-B (KWWD)
02:14PM 40.1707 -75.6628 237° Southwest 330 380 33,700 1,140 Climbing FlightAware ADS-B (KWWD)
02:15PM 40.1452 -75.7133 237° Southwest 329 379 34,300 1,140 Climbing FlightAware ADS-B (KWWD)
02:15PM 40.1191 -75.7650 237° Southwest 330 380 34,900 1,260 Climbing FlightAware ADS-B (KWWD)
02:15PM 40.1147 -75.7738 237° Southwest 335 386 35,100 1,200 Climbing FlightAware ADS-B (KAPG)
02:16PM 40.0856 -75.8313 237° Southwest 330 380 35,700 1,080 Climbing FlightAware ADS-B (KWWD)
02:16PM 40.0528 -75.8961 236° Southwest 330 380 36,400 1,080 Climbing FlightAware ADS-B (KWWD)
02:17PM 40.0268 -75.9474 237° Southwest 329 379 37,000 1,260 Climbing FlightAware ADS-B (KWWD)
02:17PM 40.0285 -75.9441 56° Northeast 333 383 37,300 1,560 Climbing FlightAware ADS-B (KAPG)
02:17PM 40.0056 -75.9891 236° Southwest 330 380 37,700 1,020 Climbing FlightAware ADS-B (KAPG)
02:18PM 39.9781 -76.0428 236° Southwest 328 377 38,100 1,020 Climbing FlightAware ADS-B (KWWD)
02:18PM 39.9430 -76.1125 237° Southwest 324 373 39,000 1,200 Climbing FlightAware ADS-B (KWWD)
02:19PM 39.9255 -76.1466 236° Southwest 316 364 39,700 1,080 Climbing FlightAware ADS-B (KAPG)
02:20PM 39.8864 -76.2234 236° Southwest 308 354 40,300 780 Climbing FlightAware ADS-B (KWWD)
02:20PM 39.8860 -76.2240 235° Southwest 313 360 40,700 600 Climbing FlightAware ADS-B (KAPG)
02:21PM 39.8305 -76.3335 237° Southwest 314 361 41,000 540 Climbing FlightAware ADS-B (KWWD)
02:21PM 39.8443 -76.3068 56° Northeast 314 361 41,300 660 Climbing FlightAware ADS-B (KAPG)
02:22PM 39.7771 -76.4374 236° Southwest 312 359 41,800 720 Climbing FlightAware ADS-B (KAPG)
02:23PM 39.7505 -76.4897 237° Southwest 306 352 42,200 600 Climbing FlightAware ADS-B (KWWD)
02:23PM 39.7132 -76.5629 236° Southwest 305 351 42,600 480 Climbing FlightAware ADS-B (KWWD)
02:24PM 39.6880 -76.6098 235° Southwest 304 350 42,900 480 Climbing FlightAware ADS-B (KWWD)
02:24PM 39.6711 -76.6356 230° Southwest 308 354 43,000 120 Climbing FlightAware ADS-B (KWWD)
02:25PM 39.6448 -76.6735 228° Southwest 314 361 43,000  Level FlightAware ADS-B (KAPG)
02:25PM 39.6004 -76.7382 228° Southwest 316 364 43,000  Level FlightAware ADS-B (KWWD)
02:25PM 39.5903 -76.7529 228° Southwest 324 373 43,000  Level FlightAware ADS-B (KAPG)
02:26PM 39.5807 -76.7668 228° Southwest 325 374 43,000  Level FlightAware ADS-B (KAPG)
02:26PM 39.5807 -76.7668 228° Southwest 328 377 43,000  Level FlightAware ADS-B (KAPG)
02:27PM 39.5317 -76.8371 228° Southwest 335 386 43,000  Level FlightAware ADS-B (KAPG)
02:27PM 39.5426 -76.8214 48° Northeast 340 391 43,000  Level FlightAware ADS-B (KAPG)
02:28PM 39.4694 -76.9270 228° Southwest 345 397 43,000  Level FlightAware ADS-B (KAPG)
02:29PM 39.3971 -77.0312 228° Southwest 347 399 43,000  Level FlightAware ADS-B (KAPG)
02:29PM 39.3868 -77.0460 228° Southwest 348 400 43,000  Level FlightAware ADS-B (KAPG)
02:29PM 39.3757 -77.0620 228° Southwest 349 402 43,000  Level FlightAware ADS-B (KAPG)
02:31PM 39.2508 -77.2401 228° Southwest 347 399 43,000  Level FlightAware ADS-B (KWWD)
02:31PM 39.2092 -77.2997 228° Southwest 350 403 43,000  Level FlightAware ADS-B (KWWD)
02:32PM 39.1750 -77.3480 228° Southwest 357 411 43,000  Level FlightAware ADS-B (KWWD)
02:33PM 39.1270 -77.4161 228° Southwest 358 412 43,000  Level FlightAware ADS-B (KWWD)
02:35PM 39.0024 -77.5918 228° Southwest 359 413 43,000  Level FlightAware ADS-B (KWWD)
02:35PM 38.9490 -77.6670 228° Southwest 361 415 43,000  Level FlightAware ADS-B (KWWD)
02:38PM 38.7430 -77.9553 228° Southwest 361 415 43,000  Level FlightAware ADS-B (KWWD)
02:39PM 38.6977 -78.0181 227° Southwest 379 436 43,000  Level FlightAware ADS-B (KWWD)
02:40PM 38.6471 -78.0878 227° Southwest 379 436 43,000  Level FlightAware ADS-B (KWWD)
02:42PM 38.4796 -78.3202 227° Southwest 379 436 43,000  Level FlightAware ADS-B (KWWD)
02:43PM 38.4444 -78.3685 227° Southwest 376 433 43,000  Level FlightAware ADS-B (KWWD)
02:43PM 38.4017 -78.4270 227° Southwest 375 432 43,000  Level FlightAware ADS-B (KWWD)
02:44PM 38.3636 -78.4752 225° Southwest 369 425 43,000  Level FlightAware ADS-B (KWWD)
02:44PM 38.3008 -78.5402 219° Southwest 369 425 43,000  Level FlightAware ADS-B (KWWD)
02:48PM 38.0429 -78.8025 219° Southwest 370 426 43,000  Level FlightAware ADS-B (KWWD)
02:48PM 37.9843 -78.8618 219° Southwest 370 426 43,000  Level FlightAware ADS-B (KWWD)
02:49PM 37.9211 -78.9256 219° Southwest 371 427 43,000  Level FlightAware ADS-B (KWWD)
02:53PM 37.5950 -79.2520 218° Southwest 369 425 43,000  Level FlightAware ADS-B (KWWD)
02:54PM 37.5401 -79.3066 218° Southwest 369 425 43,000  Level FlightAware ADS-B (KWWD)
02:55PM 37.4895 -79.3565 218° Southwest 367 422 43,000  Level FlightAware ADS-B (KWWD)
02:55PM 37.4383 -79.4073 218° Southwest 368 423 43,000  Level FlightAware ADS-B (KWWD)
02:57PM 37.3225 -79.5197 218° Southwest 380 437 43,000  Level Washington Center
02:58PM 37.2428 -79.5992 218° Southwest 380 437 43,000  Level Washington Center
02:59PM 37.1694 -79.6736 219° Southwest 380 437 43,000  Level Washington Center
03:00PM 37.0894 -79.7525 218° Southwest 385 443 43,000  Level Washington Center
03:01PM 36.9533 -79.8803 217° Southwest 385 443 43,000  Level Atlanta Center
03:02PM 36.8706 -79.9600 218° Southwest 385 443 43,000  Level Atlanta Center
03:03PM 36.7858 -80.0447 219° Southwest 385 443 43,000  Level Atlanta Center
03:04PM 36.6928 -80.1347 218° Southwest 385 443 43,000  Level Atlanta Center
03:05PM 36.6078 -80.2139 217° Southwest 385 443 43,000  Level Atlanta Center
03:06PM 36.5161 -80.2881 213° Southwest 390 449 43,000  Level Atlanta Center
03:07PM 36.4153 -80.3289 198° South 385 443 43,000  Level Atlanta Center
03:08PM 36.3122 -80.3697 198° South 390 449 43,000  Level Atlanta Center
03:09PM 36.2194 -80.4075 198° South 395 455 43,000  Level Atlanta Center
03:10PM 36.1142 -80.4506 198° South 395 455 43,000  Level Atlanta Center
03:11PM 36.0111 -80.4886 197° South 395 455 43,000  Level Atlanta Center
03:12PM 35.9081 -80.5342 200° South 395 455 43,000  Level Atlanta Center
03:13PM 35.8050 -80.5744 198° South 395 455 43,000  Level Atlanta Center
03:14PM 35.6978 -80.6172 198° South 401 461 43,000  Level Atlanta Center
03:15PM 35.5903 -80.6600 198° South 401 461 43,000  Level Atlanta Center
03:16PM 35.4728 -80.7058 198° South 401 461 43,000  Level Atlanta Center
03:17PM 35.3633 -80.7483 198° South 401 461 43,000  Level Atlanta Center
03:18PM 35.2581 -80.7933 199° South 401 461 43,000  Level Atlanta Center
03:19PM 35.1486 -80.8381 198° South 401 461 43,000  Level Atlanta Center
03:21PM 34.9100 -80.9256 197° South 407 468 43,000  Level Jacksonville Center
03:22PM 34.8025 -80.9761 201° Southwest 407 468 43,000  Level Jacksonville Center
03:23PM 34.6967 -81.0114 195° South 406 467 43,000  Level Jacksonville Center
03:24PM 34.5844 -81.0567 198° South 406 467 43,000  Level Jacksonville Center
03:25PM 34.4767 -81.0992 198° South 406 467 43,000  Level Jacksonville Center
03:26PM 34.3689 -81.1417 198° South 406 467 43,000  Level Jacksonville Center
03:27PM 34.2650 -81.1789 196° South 406 467 43,000  Level Jacksonville Center
03:28PM 34.1550 -81.2189 197° South 401 461 43,000  Level Jacksonville Center
03:29PM 34.0450 -81.2611 198° South 401 461 43,000  Level Jacksonville Center
03:30PM 33.9328 -81.3031 197° South 411 473 43,000  Level Jacksonville Center
03:31PM 33.8247 -81.3450 198° South 416 479 43,000  Level Jacksonville Center
03:32PM 33.7125 -81.3844 196° South 421 484 43,000  Level Jacksonville Center
03:33PM 33.6047 -81.4261 198° South 421 484 43,000  Level Jacksonville Center
03:34PM 33.4944 -81.4681 198° South 421 484 43,000  Level Jacksonville Center
03:35PM 33.3844 -81.5094 197° South 421 484 43,000  Level Jacksonville Center
03:36PM 33.2761 -81.5508 198° South 421 484 43,000  Level Jacksonville Center
03:37PM 33.1661 -81.5947 198° South 421 484 43,000  Level Jacksonville Center
03:38PM 33.0558 -81.6336 196° South 421 484 43,000  Level Jacksonville Center
03:39PM 32.9456 -81.6772 198° South 416 479 43,000  Level Jacksonville Center
03:40PM 32.8333 -81.7133 195° South 416 479 43,000  Level Jacksonville Center
03:41PM 32.7250 -81.7567 199° South 416 479 43,000  Level Jacksonville Center
03:42PM 32.6169 -81.7975 198° South 416 479 43,000  Level Jacksonville Center
03:43PM 32.5044 -81.8383 197° South 422 486 43,000  Level Jacksonville Center
03:44PM 32.4025 -81.8764 197° South 422 486 43,000  Level Jacksonville Center
03:45PM 32.2733 -81.9000 189° South 422 486 43,000  Level Jacksonville Center
03:46PM 32.1625 -81.8789 171° South 443 510 43,000  Level Jacksonville Center
03:47PM 32.0244 -81.8439 168° South 451 519 43,000  Level Jacksonville Center
03:48PM 31.9031 -81.8108 167° South 451 519 43,000  Level Jacksonville Center
03:49PM 31.7922 -81.7806 167° South 451 519 43,000  Level Jacksonville Center
03:50PM 31.6581 -81.7431 167° South 449 517 43,000  Level Jacksonville Center
03:51PM 31.5450 -81.7128 167° South 449 517 43,000  Level Jacksonville Center
03:52PM 31.4111 -81.6753 167° South 448 516 43,000  Level Jacksonville Center
03:53PM 31.2878 -81.6431 167° South 457 526 43,000  Level Jacksonville Center
03:54PM 31.1661 -81.6083 166° South 457 526 43,000 -60 Level Jacksonville Center
03:55PM 31.0447 -81.5758 167° South 447 514 42,900  Descending Jacksonville Center
03:56PM 30.9233 -81.5436 167° South 447 514 43,000  Climbing Jacksonville Center
03:57PM 30.8019 -81.5092 166° South 452 520 43,000  Level Jacksonville Center
03:58PM 30.6803 -81.4772 167° South 452 520 43,000  Level Jacksonville Center
03:59PM 30.5611 -81.4428 166° South 447 514 43,000 -60 Level Jacksonville Center
04:00PM 30.4417 -81.4131 168° South 447 514 42,900 -60 Descending Jacksonville Center
04:01PM 30.3369 -81.3858 167° South 447 514 42,900 -480 Level Jacksonville Center
04:02PM 30.2156 -81.3517 166° South 447 514 42,000 -1,140 Descending Jacksonville Center
04:03PM 30.0961 -81.3225 168° South 447 514 40,700 -1,440 Descending Jacksonville Center
04:04PM 29.9767 -81.2933 168° South 442 509 39,200 -1,500 Descending Jacksonville Center
04:05PM 29.8572 -81.2617 167° South 442 509 37,800 -1,380 Descending Jacksonville Center
04:06PM 29.7400 -81.2300 167° South 437 503 36,500 -900 Descending Jacksonville Center
04:07PM 29.6269 -81.2011 167° South 426 490 36,000 -300 Descending Jacksonville Center
04:08PM 29.5139 -81.1719 167° South 426 490 36,000  Level Jacksonville Center
04:09PM 29.4028 -81.1406 166° South 415 478 36,000  Level Jacksonville Center
04:15PM 28.8241 -80.7649 166° South 436 502 36,000 -60 Level FlightAware ADS-B (VOCI / COK)
04:16PM 28.7228 -80.6918 148° Southeast 437 503 35,800 -1,380 Descending FlightAware ADS-B (VOCI / COK)
04:17PM 28.5847 -80.5921 148° Southeast 456 525 32,900 -2,160 Descending FlightAware ADS-B (VOCI / COK)
04:19PM 28.4467 -80.4950 148° Southeast 456 525 30,200 -2,280 Descending Miami Center
04:20PM 28.3186 -80.4414 160° South 456 525 27,600 -2,280 Descending Miami Center
04:21PM 28.2006 -80.4069 166° South 456 525 25,700 -1,980 Descending Miami Center
04:22PM 28.0844 -80.3703 164° South 444 511 23,700 -2,040 Descending Miami Center
04:23PM 27.9808 -80.3389 165° South 432 497 21,700 -2,220 Descending Miami Center
04:24PM 27.8525 -80.2997 165° South 432 497 19,300 -2,340 Descending Miami Center
04:25PM 27.7467 -80.2661 164° South 419 482 17,100 -2,220 Descending Miami Center
04:26PM 27.6389 -80.2347 166° South 407 468 14,900 -2,160 Descending Miami Center
04:27PM 27.5394 -80.2036 164° South 394 453 12,800 -2,160 Descending Miami Center
04:28PM 27.4522 -80.1778 165° South 364 419 10,600 -1,440 Descending Miami Center
04:29PM 27.3672 -80.1519 165° South 342 394 10,000 -300 Descending Miami Center
04:30PM 27.2800 -80.1353 170° South 295 339 10,000  Level Miami Center
04:31PM 27.2033 -80.1075 162° South 295 339 10,000 -780 Level Miami Center
04:32PM 27.1247 -80.0750 160° South 300 345 8,500 -1,500 Descending Miami Center
04:33PM 27.0564 -80.0450 159° South 300 345 7,000 -1,620 Descending Miami Center
04:34PM 26.9819 -80.0175 162° South 300 345 5,300 -1,740 Descending Miami Center
04:35PM 26.8989 -79.9897 163° South 290 334 3,600 -1,200 Descending Miami Center
04:36PM 26.8261 -79.9736 169° South 275 316 2,900 -720 Descending Miami Center
04:38PM 26.6832 -80.0956 265° West  Level Estimated
04:45PM 26.6832 -80.0956 110° East  Level Estimated
04:46PM 26.6832 -80.0956 110° East  Level Estimated
04:47PM 26.6832 -80.0956 110° East  Level Estimated
04:48PM 26.6832 -80.0956 110° East  Level Estimated
04:49PM 26.6832 -80.0956 110° East  Level Estimated
04:50PM 26.6832 -80.0956 110° East  Level Estimated